Salem, Nebraska
Current Conditions -  °F | °C
As of 4:53 AM on Thursday 23 Oct 2014 (Local Time) from KFNB Reporting Station
Clear Clear  
Wind Chill: 61°   Ceiling: Unl
Heat Index: 61°   Visibility: 7mi
Dew Point: 60°   Wind: 9mph
Humidity: 97%   Direction: 170°S
Pressure: 30.05"   Gusts: NA
Location:  40.08°N, 95.72°W
Report Text: KFNB 230953Z AUTO 17008KT 7SM CLR 16/16 A3005 RMK AO2 SLP168 T01610156
Loading
Personal Weather Stations






























Interactive Weather Map
Tropical Storm Tracking
New forecast layout! Learn more

10-Day Weather Forecast

Advertisements
Track Severe Weather on mobile